Glen Robertson, Canada
Current Conditions -  °F | °C
As of 1:00 AM on Sunday 26 Oct 2014 (Local Time) from CYMX Reporting Station
Overcast Overcast  
Wind Chill: 42°   Ceiling: 11000
Heat Index: 46°   Visibility: 25mi
Dew Point: 45°   Wind: 8mph
Humidity: 93%   Direction: 250°WSW
Pressure: 29.41"   Gusts: 17mph
Location:  45.35°N, 74.5°W
Report Text: CYMX 260500Z 25007G15KT 220V280 25SM FEW010 FEW035 SCT065 OVC110 08/07 A2941 RMK SC1SC1SC2AC4 SLP960
Loading
Personal Weather Stations






























Interactive Weather Map
Tropical Storm Tracking
New forecast layout! Learn more

10-Day Weather Forecast

Advertisements
Track Severe Weather on mobile